createdAt,value
2023-04-05T00:00:24.139Z,99.90
2023-04-05T00:03:12.878Z,99.90
2023-04-05T00:05:58.951Z,99.90
2023-04-05T00:08:49.981Z,99.90
2023-04-05T00:11:35.764Z,99.90
2023-04-05T00:14:21.250Z,99.90
2023-04-05T00:17:07.699Z,99.90
2023-04-05T00:19:57.415Z,99.90
2023-04-05T00:22:46.552Z,99.90
2023-04-05T00:25:33.840Z,99.90
2023-04-05T00:28:19.340Z,99.90
2023-04-05T00:31:06.013Z,99.90
2023-04-05T00:33:52.286Z,99.90
2023-04-05T00:36:38.291Z,99.90
2023-04-05T00:39:24.175Z,99.90
2023-04-05T00:42:11.715Z,99.90
2023-04-05T00:44:57.581Z,99.90
2023-04-05T00:47:44.226Z,99.90
2023-04-05T00:50:32.904Z,99.90
2023-04-05T00:53:20.095Z,99.90
2023-04-05T00:56:06.422Z,99.90
2023-04-05T00:58:53.935Z,99.90
2023-04-05T01:01:41.147Z,99.90
2023-04-05T01:04:30.429Z,99.90
2023-04-05T01:07:26.482Z,99.90
2023-04-05T01:10:16.256Z,99.90
2023-04-05T01:13:02.210Z,99.90
2023-04-05T01:15:50.987Z,99.90
2023-04-05T01:18:37.989Z,99.90
2023-04-05T01:21:46.882Z,99.90
2023-04-05T01:24:46.908Z,99.90
2023-04-05T01:27:53.729Z,99.90
2023-04-05T01:30:44.364Z,99.90
2023-04-05T01:33:36.036Z,99.90
2023-04-05T01:36:27.265Z,99.90
2023-04-05T01:39:17.224Z,99.90
2023-04-05T01:42:03.968Z,99.90
2023-04-05T01:44:50.689Z,99.90
2023-04-05T01:47:38.179Z,99.90
2023-04-05T01:50:23.836Z,99.90
2023-04-05T01:53:10.546Z,99.90
2023-04-05T01:56:01.159Z,99.90
2023-04-05T01:58:47.769Z,99.90
2023-04-05T02:01:33.369Z,99.90
2023-04-05T02:04:20.870Z,99.90
2023-04-05T02:07:06.716Z,99.90
2023-04-05T02:09:52.687Z,99.90
2023-04-05T02:12:38.372Z,99.90
2023-04-05T02:15:24.839Z,99.90
2023-04-05T02:18:10.802Z,99.90
2023-04-05T02:21:04.673Z,99.90
2023-04-05T02:23:50.500Z,99.90
2023-04-05T02:26:36.478Z,99.90
2023-04-05T02:29:21.970Z,99.90
2023-04-05T02:32:08.030Z,99.90
2023-04-05T02:34:53.968Z,99.90
2023-04-05T02:37:43.530Z,99.90
2023-04-05T02:40:29.481Z,99.90
2023-04-05T02:43:15.378Z,99.90
2023-04-05T02:46:01.320Z,99.90
2023-04-05T02:48:47.185Z,99.90
2023-04-05T02:51:35.259Z,99.90
2023-04-05T02:54:26.672Z,99.90
2023-04-05T02:57:18.522Z,99.90
2023-04-05T03:00:13.343Z,99.90
2023-04-05T03:02:59.923Z,99.90
2023-04-05T03:05:47.165Z,99.90
2023-04-05T03:08:33.999Z,99.90
2023-04-05T03:11:23.819Z,99.90
2023-04-05T03:14:14.385Z,99.90
2023-04-05T03:17:06.322Z,99.90
2023-04-05T03:19:57.420Z,99.90
2023-04-05T03:22:46.888Z,99.90
2023-04-05T03:25:32.577Z,99.90
2023-04-05T03:28:20.004Z,99.90
2023-04-05T03:31:09.854Z,99.90
2023-04-05T03:33:55.561Z,99.90
2023-04-05T03:36:45.960Z,99.90
2023-04-05T03:39:50.790Z,99.90
2023-04-05T03:42:37.393Z,99.90
2023-04-05T03:45:25.196Z,99.90
2023-04-05T03:48:11.713Z,99.90
2023-04-05T03:50:57.700Z,99.90
2023-04-05T03:53:43.572Z,99.90
2023-04-05T03:56:29.615Z,99.90
2023-04-05T03:59:19.445Z,99.90
2023-04-05T04:02:07.128Z,99.90
2023-04-05T04:04:53.714Z,99.90
2023-04-05T04:07:39.641Z,99.90
2023-04-05T04:10:25.487Z,99.90
2023-04-05T04:13:14.905Z,99.90
2023-04-05T04:16:00.943Z,99.90
2023-04-05T04:18:57.853Z,99.90
2023-04-05T04:22:02.590Z,99.90
2023-04-05T04:25:04.798Z,99.90
2023-04-05T04:28:09.395Z,99.90
2023-04-05T04:31:24.261Z,99.90
2023-04-05T04:34:30.686Z,99.90
2023-04-05T04:37:37.542Z,99.90
2023-04-05T04:40:54.036Z,99.90
2023-04-05T04:43:44.117Z,99.90
2023-04-05T04:46:42.804Z,99.90
2023-04-05T04:49:41.693Z,99.90
2023-04-05T04:52:27.732Z,99.90
2023-04-05T04:55:16.283Z,99.90
2023-04-05T04:58:09.871Z,99.90
2023-04-05T05:00:57.165Z,99.90
2023-04-05T05:03:44.059Z,99.90
2023-04-05T05:06:31.631Z,99.90
2023-04-05T05:09:17.507Z,99.90
2023-04-05T05:12:08.484Z,99.90
2023-04-05T05:14:54.077Z,99.90
2023-04-05T05:17:43.039Z,99.90
2023-04-05T05:20:28.802Z,99.90
2023-04-05T05:23:16.405Z,99.90
2023-04-05T05:26:02.083Z,99.90
2023-04-05T05:28:49.602Z,99.90
2023-04-05T05:31:36.729Z,99.90
2023-04-05T05:34:22.755Z,99.90
2023-04-05T05:37:13.053Z,99.90
2023-04-05T05:40:00.858Z,99.90
2023-04-05T05:42:47.310Z,99.90
2023-04-05T05:45:33.349Z,99.90
2023-04-05T05:48:19.099Z,99.90
2023-04-05T05:51:09.769Z,98.90
2023-04-05T05:53:55.799Z,98.00
2023-04-05T05:56:42.872Z,96.10
2023-04-05T05:59:28.493Z,93.80
2023-04-05T06:02:14.398Z,91.10
2023-04-05T06:05:00.082Z,85.70
2023-04-05T06:07:46.440Z,79.10
2023-04-05T06:10:32.427Z,74.10
2023-04-05T06:13:19.557Z,69.70
2023-04-05T06:16:05.864Z,66.20
2023-04-05T06:18:51.520Z,63.20
2023-04-05T06:21:37.144Z,59.10
2023-04-05T06:24:23.135Z,57.80
2023-04-05T06:27:08.969Z,55.60
2023-04-05T06:29:59.226Z,54.40
2023-04-05T06:32:44.872Z,52.60
2023-04-05T06:35:30.591Z,51.10
2023-04-05T06:38:16.578Z,50.40
2023-04-05T06:41:02.563Z,48.60
2023-04-05T06:43:47.978Z,47.50
2023-04-05T06:46:35.688Z,47.60
2023-04-05T06:49:21.466Z,46.40
2023-04-05T06:52:07.207Z,46.30
2023-04-05T06:54:53.373Z,44.50
2023-04-05T06:57:39.387Z,43.50
2023-04-05T07:00:25.382Z,42.60
2023-04-05T07:03:12.833Z,42.20
2023-04-05T07:06:00.351Z,41.50
2023-04-05T07:08:46.045Z,40.80
2023-04-05T07:11:32.991Z,40.50
2023-04-05T07:14:18.871Z,40.00
2023-04-05T07:17:06.242Z,39.30
2023-04-05T07:19:53.601Z,41.90
2023-04-05T07:22:39.416Z,40.90
2023-04-05T07:25:25.054Z,42.10
2023-04-05T07:28:11.247Z,42.60
2023-04-05T07:30:57.004Z,42.50
2023-04-05T07:33:42.648Z,44.50
2023-04-05T07:36:31.210Z,43.30
2023-04-05T07:39:17.248Z,44.50
2023-04-05T07:42:03.232Z,43.40
2023-04-05T07:44:49.261Z,44.90
2023-04-05T07:47:35.590Z,45.60
2023-04-05T07:50:21.586Z,46.30
2023-04-05T07:53:08.957Z,49.90
2023-04-05T07:55:54.497Z,51.10
2023-04-05T07:58:41.224Z,54.10
2023-04-05T08:01:28.207Z,53.80
2023-04-05T08:04:13.759Z,53.30
2023-04-05T08:06:59.933Z,54.70
2023-04-05T08:09:47.277Z,57.00
2023-04-05T08:12:34.544Z,58.70
2023-04-05T08:15:20.599Z,59.20
2023-04-05T08:18:06.394Z,62.50
2023-04-05T08:20:53.618Z,61.70
2023-04-05T08:23:39.256Z,60.60
2023-04-05T08:26:26.800Z,59.00
2023-04-05T08:29:12.712Z,58.80
2023-04-05T08:31:58.847Z,59.10
2023-04-05T08:34:44.905Z,59.80
2023-04-05T08:37:37.112Z,56.30
2023-04-05T08:40:31.635Z,56.50
2023-04-05T08:43:28.466Z,55.60
2023-04-05T08:46:16.664Z,54.80
2023-04-05T08:49:06.779Z,54.40
2023-04-05T08:51:53.787Z,53.20
2023-04-05T08:54:39.892Z,53.20
2023-04-05T08:57:29.556Z,51.70
2023-04-05T09:00:19.282Z,51.40
2023-04-05T09:03:06.518Z,52.20
2023-04-05T09:05:53.438Z,51.90
2023-04-05T09:08:39.376Z,49.60
2023-04-05T09:11:26.047Z,49.50
2023-04-05T09:14:12.028Z,49.50
2023-04-05T09:17:02.904Z,50.10
2023-04-05T09:19:50.433Z,48.00
2023-04-05T09:22:44.019Z,47.00
2023-04-05T09:25:38.896Z,46.90
2023-04-05T09:28:39.660Z,48.10
2023-04-05T09:31:36.211Z,47.30
2023-04-05T09:34:31.227Z,44.50
2023-04-05T09:37:19.066Z,43.90
2023-04-05T09:40:07.160Z,41.00
2023-04-05T09:42:54.278Z,42.30
2023-04-05T09:45:41.732Z,43.40
2023-04-05T09:48:46.687Z,41.40
2023-04-05T09:51:34.774Z,39.60
2023-04-05T09:54:22.099Z,39.70
2023-04-05T09:57:07.734Z,41.60
2023-04-05T09:59:54.003Z,42.80
2023-04-05T10:02:40.732Z,41.80
2023-04-05T10:05:28.493Z,41.20
2023-04-05T10:08:16.404Z,40.20
2023-04-05T10:11:04.864Z,39.70
2023-04-05T10:13:51.626Z,39.80
2023-04-05T10:16:42.577Z,39.00
2023-04-05T10:19:37.588Z,40.30
2023-04-05T10:22:30.021Z,37.90
2023-04-05T10:25:24.380Z,39.30
2023-04-05T10:28:12.089Z,37.90
2023-04-05T10:31:05.646Z,37.30
2023-04-05T10:33:55.917Z,38.10
2023-04-05T10:36:49.693Z,35.70
2023-04-05T10:39:41.074Z,38.10
2023-04-05T10:42:33.907Z,37.50
2023-04-05T10:45:22.290Z,37.20
2023-04-05T10:48:16.419Z,37.70
2023-04-05T10:51:03.397Z,39.20
2023-04-05T10:53:50.633Z,39.20
2023-04-05T10:56:38.997Z,39.30
2023-04-05T10:59:28.005Z,37.50
2023-04-05T11:02:14.829Z,38.90
2023-04-05T11:05:06.996Z,37.80
2023-04-05T11:07:56.418Z,37.20
2023-04-05T11:10:42.284Z,38.30
2023-04-05T11:13:49.520Z,35.70
2023-04-05T11:16:46.475Z,36.30
2023-04-05T11:19:53.813Z,36.20
2023-04-05T11:22:39.500Z,37.60
2023-04-05T11:25:25.655Z,38.60
2023-04-05T11:28:23.400Z,35.50
2023-04-05T11:31:14.119Z,36.00
2023-04-05T11:34:12.990Z,36.40
2023-04-05T11:36:58.920Z,38.60
2023-04-05T11:39:44.808Z,36.20
2023-04-05T11:42:30.699Z,36.90
2023-04-05T11:45:19.304Z,35.80
2023-04-05T11:48:06.724Z,36.60
2023-04-05T11:50:54.918Z,36.90
2023-04-05T11:53:46.031Z,34.70
2023-04-05T11:56:31.839Z,35.50
2023-04-05T11:59:17.774Z,36.20
2023-04-05T12:02:06.526Z,34.10
2023-04-05T12:04:57.247Z,37.90
2023-04-05T12:07:44.684Z,35.30
2023-04-05T12:10:30.497Z,35.70
2023-04-05T12:13:24.812Z,37.00
2023-04-05T12:16:10.792Z,36.20
2023-04-05T12:18:58.172Z,36.70
2023-04-05T12:21:44.120Z,37.20
2023-04-05T12:24:31.660Z,37.20
2023-04-05T12:27:17.191Z,36.80
2023-04-05T12:30:11.135Z,35.90
2023-04-05T12:32:57.792Z,38.50
2023-04-05T12:35:44.058Z,36.50
2023-04-05T12:38:30.803Z,36.60
2023-04-05T12:41:26.705Z,38.70
2023-04-05T12:44:15.202Z,38.30
2023-04-05T12:47:07.691Z,38.20
2023-04-05T12:49:55.783Z,37.10
2023-04-05T12:52:53.071Z,36.20
2023-04-05T12:55:45.905Z,36.20
2023-04-05T12:58:37.529Z,36.80
2023-04-05T13:01:23.269Z,37.70
2023-04-05T13:04:15.960Z,36.40
2023-04-05T13:07:02.616Z,36.40
2023-04-05T13:09:48.287Z,37.20
2023-04-05T13:12:33.982Z,36.40
2023-04-05T13:15:22.303Z,36.90
2023-04-05T13:18:08.266Z,36.90
2023-04-05T13:20:54.296Z,37.50
2023-04-05T13:23:40.719Z,38.20
2023-04-05T13:26:26.434Z,36.30
2023-04-05T13:29:11.999Z,39.10
2023-04-05T13:31:59.125Z,36.80
2023-04-05T13:34:44.756Z,36.50
2023-04-05T13:37:30.503Z,37.30
2023-04-05T13:40:19.295Z,37.30
2023-04-05T13:43:05.529Z,37.80
2023-04-05T13:45:51.209Z,37.10
2023-04-05T13:48:38.886Z,37.00
2023-04-05T13:51:24.858Z,37.10
2023-04-05T13:54:11.757Z,35.60
2023-04-05T13:56:59.283Z,36.20
2023-04-05T13:59:44.921Z,35.90
2023-04-05T14:02:30.797Z,36.10
2023-04-05T14:05:18.605Z,38.20
2023-04-05T14:08:04.490Z,38.90
2023-04-05T14:10:51.477Z,38.40
2023-04-05T14:13:37.500Z,36.90
2023-04-05T14:16:23.647Z,38.50
2023-04-05T14:19:09.416Z,38.60
2023-04-05T14:21:57.030Z,36.00
2023-04-05T14:24:42.564Z,37.40
2023-04-05T14:27:28.546Z,36.50
2023-04-05T14:30:14.863Z,35.20
2023-04-05T14:33:00.601Z,34.40
2023-04-05T14:35:46.809Z,34.70
2023-04-05T14:38:34.606Z,35.30
2023-04-05T14:41:20.386Z,35.30
2023-04-05T14:44:06.420Z,35.60
2023-04-05T14:46:52.318Z,38.30
2023-04-05T14:49:38.578Z,38.30
2023-04-05T14:52:24.743Z,37.90
2023-04-05T14:55:13.613Z,39.30
2023-04-05T14:57:59.505Z,37.90
2023-04-05T15:00:47.167Z,37.20
2023-04-05T15:03:33.402Z,36.30
2023-04-05T15:06:19.414Z,37.80
2023-04-05T15:09:05.254Z,37.90
2023-04-05T15:11:55.042Z,38.30
2023-04-05T15:14:41.374Z,39.50
2023-04-05T15:17:27.099Z,39.10
2023-04-05T15:20:12.767Z,39.80
2023-04-05T15:22:58.890Z,41.80
2023-04-05T15:25:48.994Z,42.80
2023-04-05T15:28:36.670Z,44.00
2023-04-05T15:31:22.607Z,44.00
2023-04-05T15:34:08.931Z,41.40
2023-04-05T15:36:55.037Z,42.70
2023-04-05T15:39:40.532Z,44.10
2023-04-05T15:42:26.277Z,42.80
2023-04-05T15:45:13.548Z,43.30
2023-04-05T15:47:59.236Z,41.70
2023-04-05T15:50:44.925Z,42.40
2023-04-05T15:53:30.871Z,41.70
2023-04-05T15:56:16.883Z,41.80
2023-04-05T15:59:02.523Z,42.30
2023-04-05T16:01:50.084Z,42.10
2023-04-05T16:04:36.020Z,45.30
2023-04-05T16:07:21.977Z,42.90
2023-04-05T16:10:09.429Z,43.50
2023-04-05T16:12:55.063Z,43.10
2023-04-05T16:15:40.858Z,43.10
2023-04-05T16:18:29.622Z,43.60
2023-04-05T16:21:16.906Z,43.90
2023-04-05T16:24:03.936Z,42.90
2023-04-05T16:26:50.641Z,43.40
2023-04-05T16:29:45.873Z,43.60
2023-04-05T16:32:34.606Z,42.80
2023-04-05T16:35:22.058Z,43.00
2023-04-05T16:38:07.788Z,44.50
2023-04-05T16:40:53.814Z,43.70
2023-04-05T16:43:39.827Z,44.80
2023-04-05T16:46:26.093Z,45.00
2023-04-05T16:49:11.659Z,45.60
2023-04-05T16:51:59.355Z,45.70
2023-04-05T16:54:44.991Z,45.80
2023-04-05T16:57:30.631Z,43.90
2023-04-05T17:00:16.838Z,43.70
2023-04-05T17:03:02.476Z,44.20
2023-04-05T17:05:48.564Z,43.70
2023-04-05T17:08:36.112Z,45.60
2023-04-05T17:11:22.258Z,44.70
2023-04-05T17:14:08.394Z,44.20
2023-04-05T17:16:55.337Z,45.20
2023-04-05T17:19:42.389Z,45.30
2023-04-05T17:22:28.746Z,44.70
2023-04-05T17:25:15.799Z,45.60
2023-04-05T17:28:03.192Z,46.00
2023-04-05T17:30:48.971Z,45.90
2023-04-05T17:33:34.856Z,45.20
2023-04-05T17:36:20.992Z,45.60
2023-04-05T17:39:07.064Z,45.90
2023-04-05T17:41:56.669Z,45.80
2023-04-05T17:44:43.110Z,45.30
2023-04-05T17:47:28.890Z,45.50
2023-04-05T17:50:15.505Z,46.30
2023-04-05T17:53:01.800Z,46.80
2023-04-05T17:55:50.907Z,47.50
2023-04-05T17:58:38.257Z,47.80
2023-04-05T18:01:24.026Z,48.30
2023-04-05T18:04:12.570Z,48.40
2023-04-05T18:06:58.578Z,49.20
2023-04-05T18:09:44.078Z,49.50
2023-04-05T18:12:29.681Z,50.40
2023-04-05T18:15:18.587Z,50.50
2023-04-05T18:18:04.586Z,50.90
2023-04-05T18:20:55.293Z,50.80
2023-04-05T18:23:41.378Z,51.50
2023-04-05T18:26:28.509Z,52.10
2023-04-05T18:29:14.673Z,53.10
2023-04-05T18:32:02.240Z,54.40
2023-04-05T18:34:48.371Z,54.80
2023-04-05T18:37:33.822Z,55.00
2023-04-05T18:40:20.918Z,55.40
2023-04-05T18:43:06.471Z,56.20
2023-04-05T18:45:54.326Z,56.10
2023-04-05T18:48:41.601Z,56.10
2023-04-05T18:51:27.564Z,56.40
2023-04-05T18:54:13.968Z,56.40
2023-04-05T18:57:00.116Z,57.30
2023-04-05T18:59:45.993Z,58.30
2023-04-05T19:02:32.196Z,58.70
2023-04-05T19:05:19.757Z,59.30
2023-04-05T19:08:05.807Z,59.80
2023-04-05T19:10:51.595Z,60.40
2023-04-05T19:13:37.244Z,60.60
2023-04-05T19:16:23.060Z,60.90
2023-04-05T19:19:09.329Z,61.90
2023-04-05T19:21:57.926Z,62.80
2023-04-05T19:24:44.005Z,63.70
2023-04-05T19:27:36.632Z,64.00
2023-04-05T19:30:25.533Z,63.40
2023-04-05T19:33:11.142Z,62.90
2023-04-05T19:35:57.501Z,61.80
2023-04-05T19:38:44.861Z,62.00
2023-04-05T19:41:34.047Z,63.20
2023-04-05T19:44:37.263Z,64.70
2023-04-05T19:47:22.985Z,65.00
2023-04-05T19:50:37.540Z,66.00
2023-04-05T19:53:39.623Z,67.40
2023-04-05T19:56:29.813Z,68.60
2023-04-05T19:59:29.109Z,69.40
2023-04-05T20:02:28.498Z,70.40
2023-04-05T20:05:30.393Z,70.60
2023-04-05T20:08:16.851Z,70.80
2023-04-05T20:11:07.795Z,71.20
2023-04-05T20:13:56.974Z,71.80
2023-04-05T20:16:44.309Z,72.20
2023-04-05T20:19:31.489Z,72.60
2023-04-05T20:22:17.454Z,73.20
2023-04-05T20:25:33.846Z,73.60
2023-04-05T20:28:36.294Z,74.30
2023-04-05T20:31:25.931Z,74.60
2023-04-05T20:34:12.351Z,74.60
2023-04-05T20:37:00.087Z,75.00
2023-04-05T20:39:46.241Z,75.70
2023-04-05T20:42:32.979Z,76.30
2023-04-05T20:45:18.961Z,76.80
2023-04-05T20:48:06.965Z,77.00
2023-04-05T20:50:53.481Z,77.40
2023-04-05T20:53:39.851Z,77.80
2023-04-05T20:56:26.743Z,78.40
2023-04-05T20:59:12.279Z,79.00
2023-04-05T21:01:58.320Z,79.80
2023-04-05T21:04:46.258Z,80.60
2023-04-05T21:07:34.265Z,81.00
2023-04-05T21:10:21.906Z,81.50
2023-04-05T21:13:08.013Z,81.90
2023-04-05T21:15:55.155Z,82.30
2023-04-05T21:18:41.167Z,82.50
2023-04-05T21:21:28.266Z,83.00
2023-04-05T21:24:13.698Z,83.30
2023-04-05T21:26:59.913Z,83.60
2023-04-05T21:29:51.894Z,83.80
2023-04-05T21:32:37.956Z,84.20
2023-04-05T21:35:24.048Z,84.20
2023-04-05T21:38:13.558Z,84.40
2023-04-05T21:41:01.094Z,84.70
2023-04-05T21:43:46.613Z,84.90
2023-04-05T21:46:32.341Z,85.50
2023-04-05T21:49:18.511Z,85.90
2023-04-05T21:52:04.073Z,86.30
2023-04-05T21:54:51.180Z,86.80
2023-04-05T21:57:36.808Z,87.40
2023-04-05T22:00:22.403Z,88.10
2023-04-05T22:03:08.142Z,88.70
2023-04-05T22:05:53.718Z,88.90
2023-04-05T22:08:39.617Z,89.50
2023-04-05T22:11:27.545Z,90.30
2023-04-05T22:14:13.337Z,90.20
2023-04-05T22:16:59.087Z,90.40
2023-04-05T22:19:46.673Z,90.50
2023-04-05T22:22:32.468Z,90.70
2023-04-05T22:25:18.574Z,91.00
2023-04-05T22:28:05.800Z,91.10
2023-04-05T22:30:51.724Z,91.30
2023-04-05T22:33:37.188Z,91.30
2023-04-05T22:36:22.776Z,91.60
2023-04-05T22:39:08.815Z,91.80
2023-04-05T22:41:55.092Z,92.00
2023-04-05T22:44:42.654Z,92.10
2023-04-05T22:47:28.791Z,92.20
2023-04-05T22:50:15.043Z,92.30
2023-04-05T22:53:00.924Z,92.40
2023-04-05T22:55:46.791Z,92.50
2023-04-05T22:58:32.926Z,92.60
2023-04-05T23:01:20.421Z,92.70
2023-04-05T23:04:06.868Z,92.80
2023-04-05T23:06:52.736Z,93.00
2023-04-05T23:09:38.425Z,93.10
2023-04-05T23:12:25.695Z,93.10
2023-04-05T23:15:11.977Z,93.20
2023-04-05T23:17:59.109Z,93.30
2023-04-05T23:20:45.392Z,93.50
2023-04-05T23:23:31.316Z,93.50
2023-04-05T23:26:17.006Z,93.60
2023-04-05T23:29:02.557Z,93.80
2023-04-05T23:31:48.406Z,93.90
2023-04-05T23:34:35.927Z,94.00
2023-04-05T23:37:21.664Z,94.10
2023-04-05T23:40:08.381Z,94.20
2023-04-05T23:42:54.331Z,94.30
2023-04-05T23:45:39.784Z,94.40
2023-04-05T23:48:25.471Z,94.50
2023-04-05T23:51:12.658Z,94.50
2023-04-05T23:53:58.974Z,94.60
2023-04-05T23:56:44.859Z,94.60
2023-04-05T23:59:31.208Z,94.80
